Terminal Aerodrome Forecast
Issued by NWS

Home | Current Version | Previous Version | Text Only | Print | Product List | Glossary On
Versions: 1 2 3 4 5 6 7 8 9 10 11 12 13 14 15 16 17 18 19 20 21
059
FTUS42 KTAE 221122
TAFVLD
TAF
KVLD 221122Z 2212/2312 11005KT P6SM -SHRA SCT080 BKN150
     FM221500 10006KT P6SM -SHRA BKN040 OVC050
     FM222000 10009KT P6SM -SHRA SCT025 BKN040
     FM230000 07005KT P6SM BKN015
     FM230400 06005KT P6SM OVC007
     FM230700 05005KT 6SM BR OVC003=

USA.gov is the U.S. government's official web portal to all federal, state and local government web resources and services.